sensor_id;sensor_type;location;lat;lon;timestamp;P1;durP1;ratioP1;P2;durP2;ratioP2
18206;SDS011;9229;52.354;20.886;2022-09-01T00:03:42;1.58;;;1.48;;
18206;SDS011;9229;52.354;20.886;2022-09-01T00:08:48;1.60;;;1.48;;
18206;SDS011;9229;52.354;20.886;2022-09-01T00:13:51;1.40;;;1.40;;
18206;SDS011;9229;52.354;20.886;2022-09-01T00:18:57;3.33;;;1.40;;
18206;SDS011;9229;52.354;20.886;2022-09-01T00:24:02;1.40;;;1.40;;
18206;SDS011;9229;52.354;20.886;2022-09-01T00:29:10;1.60;;;1.50;;
18206;SDS011;9229;52.354;20.886;2022-09-01T00:34:17;1.65;;;1.40;;
18206;SDS011;9229;52.354;20.886;2022-09-01T00:39:19;1.60;;;1.60;;
18206;SDS011;9229;52.354;20.886;2022-09-01T00:44:21;1.70;;;1.60;;
18206;SDS011;9229;52.354;20.886;2022-09-01T00:49:29;1.60;;;1.60;;
18206;SDS011;9229;52.354;20.886;2022-09-01T00:54:35;2.70;;;1.60;;
18206;SDS011;9229;52.354;20.886;2022-09-01T00:59:42;1.60;;;1.50;;
18206;SDS011;9229;52.354;20.886;2022-09-01T01:04:54;1.52;;;1.50;;
18206;SDS011;9229;52.354;20.886;2022-09-01T01:09:59;1.40;;;1.40;;
18206;SDS011;9229;52.354;20.886;2022-09-01T01:15:02;1.60;;;1.60;;
18206;SDS011;9229;52.354;20.886;2022-09-01T01:20:08;1.40;;;1.40;;
18206;SDS011;9229;52.354;20.886;2022-09-01T01:25:33;1.65;;;1.38;;
18206;SDS011;9229;52.354;20.886;2022-09-01T01:30:40;4.68;;;1.63;;
18206;SDS011;9229;52.354;20.886;2022-09-01T01:35:45;1.52;;;1.52;;
18206;SDS011;9229;52.354;20.886;2022-09-01T01:40:49;1.45;;;1.45;;
18206;SDS011;9229;52.354;20.886;2022-09-01T01:45:56;4.07;;;1.95;;
18206;SDS011;9229;52.354;20.886;2022-09-01T01:51:05;3.33;;;1.70;;
18206;SDS011;9229;52.354;20.886;2022-09-01T01:56:09;1.80;;;1.60;;
18206;SDS011;9229;52.354;20.886;2022-09-01T02:01:15;2.10;;;1.90;;
18206;SDS011;9229;52.354;20.886;2022-09-01T02:06:19;4.57;;;2.30;;
18206;SDS011;9229;52.354;20.886;2022-09-01T02:11:29;1.90;;;1.73;;
18206;SDS011;9229;52.354;20.886;2022-09-01T02:16:33;1.70;;;1.58;;
18206;SDS011;9229;52.354;20.886;2022-09-01T02:21:37;1.75;;;1.65;;
18206;SDS011;9229;52.354;20.886;2022-09-01T02:26:45;1.80;;;1.70;;
18206;SDS011;9229;52.354;20.886;2022-09-01T02:31:52;3.50;;;1.42;;
18206;SDS011;9229;52.354;20.886;2022-09-01T02:36:56;1.70;;;1.70;;
18206;SDS011;9229;52.354;20.886;2022-09-01T02:42:00;1.90;;;1.80;;
18206;SDS011;9229;52.354;20.886;2022-09-01T02:47:02;1.55;;;1.48;;
18206;SDS011;9229;52.354;20.886;2022-09-01T02:52:09;9.10;;;1.77;;
18206;SDS011;9229;52.354;20.886;2022-09-01T02:57:19;1.80;;;1.70;;
18206;SDS011;9229;52.354;20.886;2022-09-01T03:02:37;1.85;;;1.75;;
18206;SDS011;9229;52.354;20.886;2022-09-01T03:07:39;2.88;;;1.65;;
18206;SDS011;9229;52.354;20.886;2022-09-01T03:12:48;1.58;;;1.58;;
18206;SDS011;9229;52.354;20.886;2022-09-01T03:18:00;1.90;;;1.80;;
18206;SDS011;9229;52.354;20.886;2022-09-01T03:23:03;1.40;;;1.40;;
18206;SDS011;9229;52.354;20.886;2022-09-01T03:28:10;2.50;;;2.30;;
18206;SDS011;9229;52.354;20.886;2022-09-01T03:33:16;4.53;;;1.88;;
18206;SDS011;9229;52.354;20.886;2022-09-01T03:38:21;1.88;;;1.88;;
18206;SDS011;9229;52.354;20.886;2022-09-01T03:43:26;2.03;;;1.92;;
18206;SDS011;9229;52.354;20.886;2022-09-01T03:48:30;2.38;;;2.10;;
18206;SDS011;9229;52.354;20.886;2022-09-01T03:53:33;2.40;;;1.83;;
18206;SDS011;9229;52.354;20.886;2022-09-01T03:58:41;4.43;;;1.98;;
18206;SDS011;9229;52.354;20.886;2022-09-01T04:03:47;4.43;;;2.22;;
18206;SDS011;9229;52.354;20.886;2022-09-01T04:08:57;4.47;;;1.98;;
18206;SDS011;9229;52.354;20.886;2022-09-01T04:14:06;4.35;;;1.90;;
18206;SDS011;9229;52.354;20.886;2022-09-01T04:19:13;3.50;;;2.00;;
18206;SDS011;9229;52.354;20.886;2022-09-01T04:24:27;8.13;;;1.90;;
18206;SDS011;9229;52.354;20.886;2022-09-01T04:29:33;2.90;;;2.28;;
18206;SDS011;9229;52.354;20.886;2022-09-01T04:34:37;6.72;;;2.28;;
18206;SDS011;9229;52.354;20.886;2022-09-01T04:39:47;7.07;;;3.17;;
18206;SDS011;9229;52.354;20.886;2022-09-01T04:44:56;7.97;;;3.10;;
18206;SDS011;9229;52.354;20.886;2022-09-01T04:50:01;7.25;;;3.22;;
18206;SDS011;9229;52.354;20.886;2022-09-01T04:55:12;3.15;;;2.83;;
18206;SDS011;9229;52.354;20.886;2022-09-01T05:00:20;8.52;;;3.20;;
18206;SDS011;9229;52.354;20.886;2022-09-01T05:05:25;6.13;;;2.92;;
18206;SDS011;9229;52.354;20.886;2022-09-01T05:10:28;4.50;;;2.70;;
18206;SDS011;9229;52.354;20.886;2022-09-01T05:15:58;2.83;;;2.63;;
18206;SDS011;9229;52.354;20.886;2022-09-01T05:21:04;5.32;;;2.70;;
18206;SDS011;9229;52.354;20.886;2022-09-01T05:26:12;3.20;;;2.88;;
18206;SDS011;9229;52.354;20.886;2022-09-01T05:31:40;4.40;;;3.00;;
18206;SDS011;9229;52.354;20.886;2022-09-01T05:36:44;3.72;;;2.63;;
18206;SDS011;9229;52.354;20.886;2022-09-01T05:41:51;2.40;;;2.30;;
18206;SDS011;9229;52.354;20.886;2022-09-01T05:47:02;5.57;;;2.90;;
18206;SDS011;9229;52.354;20.886;2022-09-01T05:52:08;4.30;;;2.75;;
18206;SDS011;9229;52.354;20.886;2022-09-01T05:57:15;3.58;;;2.70;;
18206;SDS011;9229;52.354;20.886;2022-09-01T06:02:22;2.55;;;2.42;;
18206;SDS011;9229;52.354;20.886;2022-09-01T06:07:25;7.30;;;2.50;;
18206;SDS011;9229;52.354;20.886;2022-09-01T06:12:29;1.85;;;1.73;;
18206;SDS011;9229;52.354;20.886;2022-09-01T06:17:36;2.22;;;2.03;;
18206;SDS011;9229;52.354;20.886;2022-09-01T06:22:38;2.42;;;1.63;;
18206;SDS011;9229;52.354;20.886;2022-09-01T06:27:44;2.67;;;1.70;;
18206;SDS011;9229;52.354;20.886;2022-09-01T06:32:53;1.83;;;1.73;;
18206;SDS011;9229;52.354;20.886;2022-09-01T06:37:55;1.80;;;1.70;;
18206;SDS011;9229;52.354;20.886;2022-09-01T06:43:11;3.42;;;1.52;;
18206;SDS011;9229;52.354;20.886;2022-09-01T06:48:22;2.13;;;1.27;;
18206;SDS011;9229;52.354;20.886;2022-09-01T06:53:29;3.60;;;1.40;;
18206;SDS011;9229;52.354;20.886;2022-09-01T06:58:36;1.17;;;1.17;;
18206;SDS011;9229;52.354;20.886;2022-09-01T07:03:42;1.38;;;1.38;;
18206;SDS011;9229;52.354;20.886;2022-09-01T07:08:50;1.30;;;1.30;;
18206;SDS011;9229;52.354;20.886;2022-09-01T07:14:02;2.47;;;1.25;;
18206;SDS011;9229;52.354;20.886;2022-09-01T07:19:08;1.05;;;1.05;;
18206;SDS011;9229;52.354;20.886;2022-09-01T07:24:34;2.55;;;1.20;;
18206;SDS011;9229;52.354;20.886;2022-09-01T07:29:54;2.58;;;0.93;;
18206;SDS011;9229;52.354;20.886;2022-09-01T07:34:58;3.08;;;1.23;;
18206;SDS011;9229;52.354;20.886;2022-09-01T07:40:01;1.17;;;1.05;;
18206;SDS011;9229;52.354;20.886;2022-09-01T07:45:24;2.78;;;1.17;;
18206;SDS011;9229;52.354;20.886;2022-09-01T07:50:32;0.80;;;0.80;;
18206;SDS011;9229;52.354;20.886;2022-09-01T07:55:38;2.50;;;0.85;;
18206;SDS011;9229;52.354;20.886;2022-09-01T08:00:43;4.57;;;0.90;;
18206;SDS011;9229;52.354;20.886;2022-09-01T08:05:54;0.70;;;0.70;;
18206;SDS011;9229;52.354;20.886;2022-09-01T08:11:00;1.75;;;1.35;;
18206;SDS011;9229;52.354;20.886;2022-09-01T08:16:04;1.67;;;0.80;;
18206;SDS011;9229;52.354;20.886;2022-09-01T08:21:10;0.75;;;0.75;;
18206;SDS011;9229;52.354;20.886;2022-09-01T08:26:31;6.80;;;1.02;;
18206;SDS011;9229;52.354;20.886;2022-09-01T08:31:38;2.40;;;0.60;;
18206;SDS011;9229;52.354;20.886;2022-09-01T08:36:42;0.80;;;0.80;;
18206;SDS011;9229;52.354;20.886;2022-09-01T08:41:46;1.38;;;0.70;;
18206;SDS011;9229;52.354;20.886;2022-09-01T08:47:00;0.75;;;0.75;;
18206;SDS011;9229;52.354;20.886;2022-09-01T08:52:10;0.65;;;0.65;;
18206;SDS011;9229;52.354;20.886;2022-09-01T08:57:23;4.45;;;0.75;;
18206;SDS011;9229;52.354;20.886;2022-09-01T09:03:05;0.60;;;0.60;;
18206;SDS011;9229;52.354;20.886;2022-09-01T09:08:24;1.45;;;0.70;;
18206;SDS011;9229;52.354;20.886;2022-09-01T09:13:40;0.63;;;0.63;;
18206;SDS011;9229;52.354;20.886;2022-09-01T09:18:49;2.50;;;0.80;;
18206;SDS011;9229;52.354;20.886;2022-09-01T09:23:58;4.57;;;0.75;;
18206;SDS011;9229;52.354;20.886;2022-09-01T09:29:06;0.75;;;0.75;;
18206;SDS011;9229;52.354;20.886;2022-09-01T09:34:15;3.72;;;1.40;;
18206;SDS011;9229;52.354;20.886;2022-09-01T09:39:33;1.95;;;0.70;;
18206;SDS011;9229;52.354;20.886;2022-09-01T09:44:39;0.63;;;0.63;;
18206;SDS011;9229;52.354;20.886;2022-09-01T09:49:44;7.35;;;1.40;;
18206;SDS011;9229;52.354;20.886;2022-09-01T09:54:59;0.63;;;0.63;;
18206;SDS011;9229;52.354;20.886;2022-09-01T10:00:04;0.93;;;0.65;;
18206;SDS011;9229;52.354;20.886;2022-09-01T10:05:25;0.80;;;0.80;;
18206;SDS011;9229;52.354;20.886;2022-09-01T10:10:49;0.93;;;0.70;;
18206;SDS011;9229;52.354;20.886;2022-09-01T10:15:52;0.73;;;0.73;;
18206;SDS011;9229;52.354;20.886;2022-09-01T10:20:56;0.80;;;0.80;;
18206;SDS011;9229;52.354;20.886;2022-09-01T10:26:04;0.47;;;0.47;;
18206;SDS011;9229;52.354;20.886;2022-09-01T10:31:11;2.75;;;0.68;;
18206;SDS011;9229;52.354;20.886;2022-09-01T10:36:15;4.35;;;0.80;;
18206;SDS011;9229;52.354;20.886;2022-09-01T10:46:50;0.73;;;0.65;;
18206;SDS011;9229;52.354;20.886;2022-09-01T10:51:57;0.70;;;0.70;;
18206;SDS011;9229;52.354;20.886;2022-09-01T10:57:01;1.20;;;0.77;;
18206;SDS011;9229;52.354;20.886;2022-09-01T11:02:11;0.63;;;0.60;;
18206;SDS011;9229;52.354;20.886;2022-09-01T11:07:28;0.88;;;0.65;;
18206;SDS011;9229;52.354;20.886;2022-09-01T11:12:43;0.70;;;0.70;;
18206;SDS011;9229;52.354;20.886;2022-09-01T11:18:01;1.38;;;0.63;;
18206;SDS011;9229;52.354;20.886;2022-09-01T11:23:09;0.70;;;0.70;;
18206;SDS011;9229;52.354;20.886;2022-09-01T11:28:41;0.52;;;0.52;;
18206;SDS011;9229;52.354;20.886;2022-09-01T11:33:46;2.38;;;0.70;;
18206;SDS011;9229;52.354;20.886;2022-09-01T11:39:01;4.25;;;0.80;;
18206;SDS011;9229;52.354;20.886;2022-09-01T11:44:11;5.68;;;0.90;;
18206;SDS011;9229;52.354;20.886;2022-09-01T11:49:26;3.25;;;0.88;;
18206;SDS011;9229;52.354;20.886;2022-09-01T11:54:36;0.70;;;0.70;;
18206;SDS011;9229;52.354;20.886;2022-09-01T11:59:42;0.93;;;0.82;;
18206;SDS011;9229;52.354;20.886;2022-09-01T12:04:44;1.10;;;0.77;;
18206;SDS011;9229;52.354;20.886;2022-09-01T12:09:48;0.70;;;0.70;;
18206;SDS011;9229;52.354;20.886;2022-09-01T12:14:55;2.88;;;0.90;;
18206;SDS011;9229;52.354;20.886;2022-09-01T12:25:25;0.60;;;0.60;;
18206;SDS011;9229;52.354;20.886;2022-09-01T12:30:31;2.92;;;0.80;;
18206;SDS011;9229;52.354;20.886;2022-09-01T12:35:39;0.70;;;0.70;;
18206;SDS011;9229;52.354;20.886;2022-09-01T12:40:41;0.70;;;0.70;;
18206;SDS011;9229;52.354;20.886;2022-09-01T12:45:45;0.60;;;0.60;;
18206;SDS011;9229;52.354;20.886;2022-09-01T12:50:47;1.35;;;0.60;;
18206;SDS011;9229;52.354;20.886;2022-09-01T12:55:58;5.95;;;0.90;;
18206;SDS011;9229;52.354;20.886;2022-09-01T13:01:31;1.20;;;0.88;;
18206;SDS011;9229;52.354;20.886;2022-09-01T13:06:35;2.03;;;0.88;;
18206;SDS011;9229;52.354;20.886;2022-09-01T13:11:37;1.23;;;0.73;;
18206;SDS011;9229;52.354;20.886;2022-09-01T13:16:42;3.00;;;0.80;;
18206;SDS011;9229;52.354;20.886;2022-09-01T13:21:44;2.65;;;0.60;;
18206;SDS011;9229;52.354;20.886;2022-09-01T13:26:47;3.40;;;0.85;;
18206;SDS011;9229;52.354;20.886;2022-09-01T13:32:01;4.30;;;0.80;;
18206;SDS011;9229;52.354;20.886;2022-09-01T13:37:04;0.80;;;0.80;;
18206;SDS011;9229;52.354;20.886;2022-09-01T13:42:08;0.82;;;0.82;;
18206;SDS011;9229;52.354;20.886;2022-09-01T13:47:15;0.68;;;0.68;;
18206;SDS011;9229;52.354;20.886;2022-09-01T13:52:18;2.40;;;0.90;;
18206;SDS011;9229;52.354;20.886;2022-09-01T13:57:22;1.45;;;0.70;;
18206;SDS011;9229;52.354;20.886;2022-09-01T14:02:26;1.05;;;0.73;;
18206;SDS011;9229;52.354;20.886;2022-09-01T14:07:30;28.95;;;3.03;;
18206;SDS011;9229;52.354;20.886;2022-09-01T14:12:32;0.90;;;0.90;;
18206;SDS011;9229;52.354;20.886;2022-09-01T14:17:36;3.70;;;0.70;;
18206;SDS011;9229;52.354;20.886;2022-09-01T14:22:48;6.97;;;0.85;;
18206;SDS011;9229;52.354;20.886;2022-09-01T14:27:51;1.17;;;0.90;;
18206;SDS011;9229;52.354;20.886;2022-09-01T14:32:58;1.58;;;0.70;;
18206;SDS011;9229;52.354;20.886;2022-09-01T14:38:01;1.38;;;0.70;;
18206;SDS011;9229;52.354;20.886;2022-09-01T14:43:07;1.17;;;0.60;;
18206;SDS011;9229;52.354;20.886;2022-09-01T14:48:16;0.70;;;0.70;;
18206;SDS011;9229;52.354;20.886;2022-09-01T14:53:20;2.05;;;0.77;;
18206;SDS011;9229;52.354;20.886;2022-09-01T14:58:24;1.33;;;0.60;;
18206;SDS011;9229;52.354;20.886;2022-09-01T15:03:29;0.88;;;0.88;;
18206;SDS011;9229;52.354;20.886;2022-09-01T15:08:31;2.53;;;0.80;;
18206;SDS011;9229;52.354;20.886;2022-09-01T15:13:35;0.80;;;0.80;;
18206;SDS011;9229;52.354;20.886;2022-09-01T15:18:38;0.98;;;0.90;;
18206;SDS011;9229;52.354;20.886;2022-09-01T15:23:40;0.68;;;0.68;;
18206;SDS011;9229;52.354;20.886;2022-09-01T15:28:44;10.02;;;1.35;;
18206;SDS011;9229;52.354;20.886;2022-09-01T15:33:49;1.35;;;0.80;;
18206;SDS011;9229;52.354;20.886;2022-09-01T15:38:59;0.73;;;0.73;;
18206;SDS011;9229;52.354;20.886;2022-09-01T15:44:01;6.30;;;1.08;;
18206;SDS011;9229;52.354;20.886;2022-09-01T15:49:08;1.00;;;0.70;;
18206;SDS011;9229;52.354;20.886;2022-09-01T15:54:12;0.70;;;0.70;;
18206;SDS011;9229;52.354;20.886;2022-09-01T15:59:16;0.77;;;0.70;;
18206;SDS011;9229;52.354;20.886;2022-09-01T16:04:24;0.65;;;0.63;;
18206;SDS011;9229;52.354;20.886;2022-09-01T16:09:29;0.50;;;0.50;;
18206;SDS011;9229;52.354;20.886;2022-09-01T16:14:31;0.70;;;0.70;;
18206;SDS011;9229;52.354;20.886;2022-09-01T16:19:40;2.67;;;1.42;;
18206;SDS011;9229;52.354;20.886;2022-09-01T16:24:51;4.00;;;0.95;;
18206;SDS011;9229;52.354;20.886;2022-09-01T16:29:57;0.75;;;0.75;;
18206;SDS011;9229;52.354;20.886;2022-09-01T16:35:08;0.80;;;0.80;;
18206;SDS011;9229;52.354;20.886;2022-09-01T16:40:13;6.32;;;0.85;;
18206;SDS011;9229;52.354;20.886;2022-09-01T16:45:32;0.63;;;0.63;;
18206;SDS011;9229;52.354;20.886;2022-09-01T16:50:47;1.75;;;0.80;;
18206;SDS011;9229;52.354;20.886;2022-09-01T16:55:59;3.35;;;0.73;;
18206;SDS011;9229;52.354;20.886;2022-09-01T17:01:11;1.00;;;0.80;;
18206;SDS011;9229;52.354;20.886;2022-09-01T17:06:28;1.45;;;1.00;;
18206;SDS011;9229;52.354;20.886;2022-09-01T17:11:34;4.50;;;1.10;;
18206;SDS011;9229;52.354;20.886;2022-09-01T17:16:46;1.10;;;1.00;;
18206;SDS011;9229;52.354;20.886;2022-09-01T17:21:58;6.95;;;1.30;;
18206;SDS011;9229;52.354;20.886;2022-09-01T17:27:07;1.48;;;0.95;;
18206;SDS011;9229;52.354;20.886;2022-09-01T17:37:48;4.78;;;0.60;;
18206;SDS011;9229;52.354;20.886;2022-09-01T17:43:03;11.80;;;1.30;;
18206;SDS011;9229;52.354;20.886;2022-09-01T17:48:16;9.93;;;1.38;;
18206;SDS011;9229;52.354;20.886;2022-09-01T17:53:27;7.20;;;1.70;;
18206;SDS011;9229;52.354;20.886;2022-09-01T17:58:43;16.33;;;2.10;;
18206;SDS011;9229;52.354;20.886;2022-09-01T18:09:26;26.48;;;2.80;;
18206;SDS011;9229;52.354;20.886;2022-09-01T18:14:32;22.10;;;2.58;;
18206;SDS011;9229;52.354;20.886;2022-09-01T18:19:51;8.98;;;1.50;;
18206;SDS011;9229;52.354;20.886;2022-09-01T18:25:37;10.70;;;2.33;;
18206;SDS011;9229;52.354;20.886;2022-09-01T18:30:42;7.38;;;2.20;;
18206;SDS011;9229;52.354;20.886;2022-09-01T18:35:56;12.88;;;1.88;;
18206;SDS011;9229;52.354;20.886;2022-09-01T18:41:26;7.85;;;1.23;;
18206;SDS011;9229;52.354;20.886;2022-09-01T18:46:59;8.90;;;2.35;;
18206;SDS011;9229;52.354;20.886;2022-09-01T18:52:09;10.02;;;1.75;;
18206;SDS011;9229;52.354;20.886;2022-09-01T18:57:26;1.45;;;1.35;;
18206;SDS011;9229;52.354;20.886;2022-09-01T19:02:40;6.00;;;1.90;;
18206;SDS011;9229;52.354;20.886;2022-09-01T19:07:53;4.68;;;1.55;;
18206;SDS011;9229;52.354;20.886;2022-09-01T19:13:06;9.70;;;1.63;;
18206;SDS011;9229;52.354;20.886;2022-09-01T19:18:22;5.13;;;1.60;;
18206;SDS011;9229;52.354;20.886;2022-09-01T19:23:32;1.67;;;1.58;;
18206;SDS011;9229;52.354;20.886;2022-09-01T19:28:48;4.53;;;1.50;;
18206;SDS011;9229;52.354;20.886;2022-09-01T19:33:56;5.20;;;1.95;;
18206;SDS011;9229;52.354;20.886;2022-09-01T19:38:59;4.72;;;1.80;;
18206;SDS011;9229;52.354;20.886;2022-09-01T19:44:04;8.05;;;1.60;;
18206;SDS011;9229;52.354;20.886;2022-09-01T19:49:18;3.90;;;2.08;;
18206;SDS011;9229;52.354;20.886;2022-09-01T19:54:28;18.27;;;2.30;;
18206;SDS011;9229;52.354;20.886;2022-09-01T19:59:46;6.22;;;1.90;;
18206;SDS011;9229;52.354;20.886;2022-09-01T20:05:07;5.63;;;2.20;;
18206;SDS011;9229;52.354;20.886;2022-09-01T20:10:29;29.05;;;2.40;;
18206;SDS011;9229;52.354;20.886;2022-09-01T20:15:53;9.25;;;2.22;;
18206;SDS011;9229;52.354;20.886;2022-09-01T20:21:06;9.52;;;2.10;;
18206;SDS011;9229;52.354;20.886;2022-09-01T20:26:13;11.00;;;2.30;;
18206;SDS011;9229;52.354;20.886;2022-09-01T20:31:24;3.97;;;2.60;;
18206;SDS011;9229;52.354;20.886;2022-09-01T20:36:33;7.07;;;2.15;;
18206;SDS011;9229;52.354;20.886;2022-09-01T20:41:40;8.60;;;2.50;;
18206;SDS011;9229;52.354;20.886;2022-09-01T20:46:53;8.55;;;2.63;;
18206;SDS011;9229;52.354;20.886;2022-09-01T20:51:56;8.13;;;2.80;;
18206;SDS011;9229;52.354;20.886;2022-09-01T20:57:12;5.95;;;2.22;;
18206;SDS011;9229;52.354;20.886;2022-09-01T21:02:36;16.80;;;2.90;;
18206;SDS011;9229;52.354;20.886;2022-09-01T21:08:06;13.73;;;3.05;;
18206;SDS011;9229;52.354;20.886;2022-09-01T21:13:22;8.68;;;3.17;;
18206;SDS011;9229;52.354;20.886;2022-09-01T21:18:39;7.68;;;3.00;;
18206;SDS011;9229;52.354;20.886;2022-09-01T21:23:48;5.63;;;2.45;;
18206;SDS011;9229;52.354;20.886;2022-09-01T21:28:50;3.58;;;2.78;;
18206;SDS011;9229;52.354;20.886;2022-09-01T21:33:57;5.85;;;2.30;;
18206;SDS011;9229;52.354;20.886;2022-09-01T21:38:59;2.65;;;2.28;;
18206;SDS011;9229;52.354;20.886;2022-09-01T21:44:01;3.33;;;1.85;;
18206;SDS011;9229;52.354;20.886;2022-09-01T21:49:05;7.97;;;2.17;;
18206;SDS011;9229;52.354;20.886;2022-09-01T21:54:08;17.42;;;2.70;;
18206;SDS011;9229;52.354;20.886;2022-09-01T21:59:11;5.43;;;2.67;;
18206;SDS011;9229;52.354;20.886;2022-09-01T22:04:20;9.07;;;2.90;;
18206;SDS011;9229;52.354;20.886;2022-09-01T22:09:23;2.30;;;2.20;;
18206;SDS011;9229;52.354;20.886;2022-09-01T22:14:25;3.08;;;2.80;;
18206;SDS011;9229;52.354;20.886;2022-09-01T22:19:34;2.95;;;2.40;;
18206;SDS011;9229;52.354;20.886;2022-09-01T22:24:40;8.55;;;2.70;;
18206;SDS011;9229;52.354;20.886;2022-09-01T22:29:42;4.30;;;2.90;;
18206;SDS011;9229;52.354;20.886;2022-09-01T22:34:46;3.00;;;2.30;;
18206;SDS011;9229;52.354;20.886;2022-09-01T22:39:48;2.65;;;2.40;;
18206;SDS011;9229;52.354;20.886;2022-09-01T22:44:50;2.58;;;2.42;;
18206;SDS011;9229;52.354;20.886;2022-09-01T22:49:54;2.80;;;2.67;;
18206;SDS011;9229;52.354;20.886;2022-09-01T22:54:56;3.30;;;2.90;;
18206;SDS011;9229;52.354;20.886;2022-09-01T22:59:58;6.93;;;2.85;;
18206;SDS011;9229;52.354;20.886;2022-09-01T23:05:01;8.93;;;2.70;;
18206;SDS011;9229;52.354;20.886;2022-09-01T23:10:05;7.43;;;2.95;;
18206;SDS011;9229;52.354;20.886;2022-09-01T23:15:15;3.10;;;2.90;;
18206;SDS011;9229;52.354;20.886;2022-09-01T23:20:20;2.60;;;2.42;;
18206;SDS011;9229;52.354;20.886;2022-09-01T23:25:29;4.07;;;2.70;;
18206;SDS011;9229;52.354;20.886;2022-09-01T23:30:31;3.85;;;2.88;;
18206;SDS011;9229;52.354;20.886;2022-09-01T23:35:35;2.85;;;2.50;;
18206;SDS011;9229;52.354;20.886;2022-09-01T23:40:42;2.97;;;2.70;;
18206;SDS011;9229;52.354;20.886;2022-09-01T23:45:46;8.55;;;3.35;;
18206;SDS011;9229;52.354;20.886;2022-09-01T23:50:53;10.57;;;3.05;;
18206;SDS011;9229;52.354;20.886;2022-09-01T23:56:00;6.28;;;3.20;;
